sensor_id;sensor_type;location;lat;lon;timestamp;pressure;altitude;pressure_sealevel;temperature;humidity
44027;BME280;29696;55.698;37.460;2023-02-04T00:02:11;98957.06;;;0.19;81.74
44027;BME280;29696;55.698;37.460;2023-02-04T00:04:37;98962.44;;;0.16;81.78
44027;BME280;29696;55.698;37.460;2023-02-04T00:07:04;98960.66;;;0.16;82.06
44027;BME280;29696;55.698;37.460;2023-02-04T00:09:30;98959.38;;;0.23;82.60
44027;BME280;29696;55.698;37.460;2023-02-04T00:11:56;98959.97;;;0.29;82.56
44027;BME280;29696;55.698;37.460;2023-02-04T00:14:22;98964.94;;;0.33;82.52
44027;BME280;29696;55.698;37.460;2023-02-04T00:16:49;98965.41;;;0.40;82.24
44027;BME280;29696;55.698;37.460;2023-02-04T00:19:15;98954.00;;;0.42;82.17
44027;BME280;29696;55.698;37.460;2023-02-04T00:21:42;98960.81;;;0.45;81.70
44027;BME280;29696;55.698;37.460;2023-02-04T00:24:08;98965.72;;;0.50;81.58
44027;BME280;29696;55.698;37.460;2023-02-04T00:26:35;98973.53;;;0.50;81.39
44027;BME280;29696;55.698;37.460;2023-02-04T00:29:01;98965.84;;;0.48;81.30
44027;BME280;29696;55.698;37.460;2023-02-04T00:31:27;98968.03;;;0.40;81.20
44027;BME280;29696;55.698;37.460;2023-02-04T00:33:53;98978.13;;;0.44;81.48
44027;BME280;29696;55.698;37.460;2023-02-04T00:36:20;98982.69;;;0.41;81.53
44027;BME280;29696;55.698;37.460;2023-02-04T00:38:46;98979.25;;;0.40;81.62
44027;BME280;29696;55.698;37.460;2023-02-04T00:41:12;98965.25;;;0.43;81.96
44027;BME280;29696;55.698;37.460;2023-02-04T00:43:39;98976.97;;;0.50;81.94
44027;BME280;29696;55.698;37.460;2023-02-04T00:46:05;98980.50;;;0.49;81.13
44027;BME280;29696;55.698;37.460;2023-02-04T00:48:31;98991.06;;;0.46;80.76
44027;BME280;29696;55.698;37.460;2023-02-04T00:50:59;98993.56;;;0.48;81.07
44027;BME280;29696;55.698;37.460;2023-02-04T00:53:25;98988.94;;;0.53;81.39
44027;BME280;29696;55.698;37.460;2023-02-04T00:55:52;98993.03;;;0.57;81.45
44027;BME280;29696;55.698;37.460;2023-02-04T00:58:18;98991.03;;;0.62;81.33
44027;BME280;29696;55.698;37.460;2023-02-04T01:00:44;98994.22;;;0.67;80.82
44027;BME280;29696;55.698;37.460;2023-02-04T01:03:10;98990.69;;;0.68;80.14
44027;BME280;29696;55.698;37.460;2023-02-04T01:05:37;99001.72;;;0.72;79.64
44027;BME280;29696;55.698;37.460;2023-02-04T01:08:04;99010.03;;;0.78;79.10
44027;BME280;29696;55.698;37.460;2023-02-04T01:10:30;99002.13;;;0.80;78.79
44027;BME280;29696;55.698;37.460;2023-02-04T01:12:57;98997.03;;;0.78;78.43
44027;BME280;29696;55.698;37.460;2023-02-04T01:15:23;99005.56;;;0.80;78.43
44027;BME280;29696;55.698;37.460;2023-02-04T01:17:49;99004.75;;;0.80;77.69
44027;BME280;29696;55.698;37.460;2023-02-04T01:20:16;99001.13;;;0.82;77.42
44027;BME280;29696;55.698;37.460;2023-02-04T01:22:42;99009.88;;;0.81;77.13
44027;BME280;29696;55.698;37.460;2023-02-04T01:25:09;99004.66;;;0.81;76.88
44027;BME280;29696;55.698;37.460;2023-02-04T01:27:45;99008.75;;;0.85;77.20
44027;BME280;29696;55.698;37.460;2023-02-04T01:30:12;99007.09;;;0.84;77.14
44027;BME280;29696;55.698;37.460;2023-02-04T01:32:39;99008.09;;;0.82;76.95
44027;BME280;29696;55.698;37.460;2023-02-04T01:35:07;99012.53;;;0.80;76.69
44027;BME280;29696;55.698;37.460;2023-02-04T01:37:33;99004.50;;;0.68;76.84
44027;BME280;29696;55.698;37.460;2023-02-04T01:39:59;99012.13;;;0.72;77.25
44027;BME280;29696;55.698;37.460;2023-02-04T01:42:26;99015.78;;;0.69;77.20
44027;BME280;29696;55.698;37.460;2023-02-04T01:44:52;99021.16;;;0.66;76.84
44027;BME280;29696;55.698;37.460;2023-02-04T01:47:21;99030.63;;;0.67;77.02
44027;BME280;29696;55.698;37.460;2023-02-04T01:49:51;99028.09;;;0.65;76.90
44027;BME280;29696;55.698;37.460;2023-02-04T01:52:19;99031.72;;;0.63;77.33
44027;BME280;29696;55.698;37.460;2023-02-04T01:54:46;99039.25;;;0.67;77.82
44027;BME280;29696;55.698;37.460;2023-02-04T01:57:15;99042.25;;;0.76;77.40
44027;BME280;29696;55.698;37.460;2023-02-04T01:59:46;99043.16;;;0.75;76.97
44027;BME280;29696;55.698;37.460;2023-02-04T02:02:44;99046.34;;;0.80;77.29
44027;BME280;29696;55.698;37.460;2023-02-04T02:05:16;99047.97;;;0.66;76.96
44027;BME280;29696;55.698;37.460;2023-02-04T02:07:43;99054.19;;;0.64;77.02
44027;BME280;29696;55.698;37.460;2023-02-04T02:10:11;99048.16;;;0.63;77.03
44027;BME280;29696;55.698;37.460;2023-02-04T02:12:39;99053.59;;;0.59;77.29
44027;BME280;29696;55.698;37.460;2023-02-04T02:15:08;99047.63;;;0.57;77.65
44027;BME280;29696;55.698;37.460;2023-02-04T02:17:35;99055.38;;;0.58;77.41
44027;BME280;29696;55.698;37.460;2023-02-04T02:20:02;99050.84;;;0.62;77.71
44027;BME280;29696;55.698;37.460;2023-02-04T02:22:57;99051.31;;;0.68;77.81
44027;BME280;29696;55.698;37.460;2023-02-04T02:25:26;99060.47;;;0.60;77.83
44027;BME280;29696;55.698;37.460;2023-02-04T02:27:53;99060.41;;;0.61;77.47
44027;BME280;29696;55.698;37.460;2023-02-04T02:30:20;99056.88;;;0.62;77.53
44027;BME280;29696;55.698;37.460;2023-02-04T02:32:49;99055.97;;;0.63;77.37
44027;BME280;29696;55.698;37.460;2023-02-04T02:35:17;99067.44;;;0.59;77.12
44027;BME280;29696;55.698;37.460;2023-02-04T02:37:43;99055.38;;;0.58;77.89
44027;BME280;29696;55.698;37.460;2023-02-04T02:40:12;99054.38;;;0.61;78.23
44027;BME280;29696;55.698;37.460;2023-02-04T02:42:39;99053.44;;;0.62;78.37
44027;BME280;29696;55.698;37.460;2023-02-04T02:45:13;99061.06;;;0.65;78.26
44027;BME280;29696;55.698;37.460;2023-02-04T02:47:42;99071.53;;;0.79;78.59
44027;BME280;29696;55.698;37.460;2023-02-04T02:50:12;99069.03;;;0.62;78.13
44027;BME280;29696;55.698;37.460;2023-02-04T02:52:40;99067.59;;;0.56;78.53
44027;BME280;29696;55.698;37.460;2023-02-04T02:55:17;99077.59;;;0.64;79.26
44027;BME280;29696;55.698;37.460;2023-02-04T02:57:45;99078.28;;;0.52;78.83
44027;BME280;29696;55.698;37.460;2023-02-04T03:05:59;99085.31;;;0.50;79.30
44027;BME280;29696;55.698;37.460;2023-02-04T03:08:27;99086.75;;;0.39;79.49
44027;BME280;29696;55.698;37.460;2023-02-04T03:10:54;99097.72;;;0.44;79.59
44027;BME280;29696;55.698;37.460;2023-02-04T03:13:21;99087.16;;;0.48;79.94
44027;BME280;29696;55.698;37.460;2023-02-04T03:15:48;99089.75;;;0.48;79.57
44027;BME280;29696;55.698;37.460;2023-02-04T03:18:16;99091.34;;;0.50;79.57
44027;BME280;29696;55.698;37.460;2023-02-04T03:20:44;99102.75;;;0.48;79.51
44027;BME280;29696;55.698;37.460;2023-02-04T03:23:11;99097.38;;;0.51;79.72
44027;BME280;29696;55.698;37.460;2023-02-04T03:25:40;99096.53;;;0.50;79.40
44027;BME280;29696;55.698;37.460;2023-02-04T03:28:06;99100.41;;;0.43;79.04
44027;BME280;29696;55.698;37.460;2023-02-04T03:30:32;99100.81;;;0.35;79.06
44027;BME280;29696;55.698;37.460;2023-02-04T03:32:59;99110.31;;;0.36;79.73
44027;BME280;29696;55.698;37.460;2023-02-04T03:35:25;99105.78;;;0.40;80.25
44027;BME280;29696;55.698;37.460;2023-02-04T03:37:51;99107.78;;;0.51;80.44
44027;BME280;29696;55.698;37.460;2023-02-04T03:40:18;99107.69;;;0.52;79.86
44027;BME280;29696;55.698;37.460;2023-02-04T03:42:44;99110.19;;;0.54;79.44
44027;BME280;29696;55.698;37.460;2023-02-04T03:45:11;99116.28;;;0.54;79.15
44027;BME280;29696;55.698;37.460;2023-02-04T03:47:37;99121.72;;;0.50;78.96
44027;BME280;29696;55.698;37.460;2023-02-04T03:50:04;99116.59;;;0.48;79.42
44027;BME280;29696;55.698;37.460;2023-02-04T03:52:30;99125.06;;;0.52;79.54
44027;BME280;29696;55.698;37.460;2023-02-04T03:54:57;99122.31;;;0.55;79.57
44027;BME280;29696;55.698;37.460;2023-02-04T03:57:23;99130.78;;;0.58;79.62
44027;BME280;29696;55.698;37.460;2023-02-04T03:59:49;99128.84;;;0.62;79.25
44027;BME280;29696;55.698;37.460;2023-02-04T04:02:15;99121.88;;;0.62;79.05
44027;BME280;29696;55.698;37.460;2023-02-04T04:04:42;99130.25;;;0.67;78.98
44027;BME280;29696;55.698;37.460;2023-02-04T04:07:08;99134.53;;;0.68;78.84
44027;BME280;29696;55.698;37.460;2023-02-04T04:09:34;99126.00;;;0.66;78.72
44027;BME280;29696;55.698;37.460;2023-02-04T04:12:00;99142.09;;;0.73;78.70
44027;BME280;29696;55.698;37.460;2023-02-04T04:14:28;99138.66;;;0.73;78.26
44027;BME280;29696;55.698;37.460;2023-02-04T04:16:55;99140.25;;;0.75;78.25
44027;BME280;29696;55.698;37.460;2023-02-04T04:19:21;99147.38;;;0.72;78.09
44027;BME280;29696;55.698;37.460;2023-02-04T04:21:49;99146.38;;;0.74;78.54
44027;BME280;29696;55.698;37.460;2023-02-04T04:24:15;99143.69;;;0.76;78.05
44027;BME280;29696;55.698;37.460;2023-02-04T04:26:42;99147.13;;;0.76;77.82
44027;BME280;29696;55.698;37.460;2023-02-04T04:29:08;99143.69;;;0.76;78.02
44027;BME280;29696;55.698;37.460;2023-02-04T04:31:34;99153.25;;;0.75;78.07
44027;BME280;29696;55.698;37.460;2023-02-04T04:34:01;99153.09;;;0.78;78.29
44027;BME280;29696;55.698;37.460;2023-02-04T04:36:27;99149.50;;;0.81;78.54
44027;BME280;29696;55.698;37.460;2023-02-04T04:38:53;99158.84;;;0.83;78.43
44027;BME280;29696;55.698;37.460;2023-02-04T04:41:19;99144.00;;;0.85;78.29
44027;BME280;29696;55.698;37.460;2023-02-04T04:43:46;99161.28;;;0.86;78.34
44027;BME280;29696;55.698;37.460;2023-02-04T04:46:12;99164.81;;;0.85;78.15
44027;BME280;29696;55.698;37.460;2023-02-04T04:48:38;99160.03;;;0.78;77.95
44027;BME280;29696;55.698;37.460;2023-02-04T04:51:05;99168.88;;;0.75;78.13
44027;BME280;29696;55.698;37.460;2023-02-04T04:53:31;99167.50;;;0.68;78.62
44027;BME280;29696;55.698;37.460;2023-02-04T04:55:57;99169.38;;;0.66;79.23
44027;BME280;29696;55.698;37.460;2023-02-04T04:58:23;99176.31;;;0.65;78.99
44027;BME280;29696;55.698;37.460;2023-02-04T05:00:50;99181.50;;;0.65;78.97
44027;BME280;29696;55.698;37.460;2023-02-04T05:03:16;99175.75;;;0.60;79.11
44027;BME280;29696;55.698;37.460;2023-02-04T05:05:42;99178.91;;;0.50;78.86
44027;BME280;29696;55.698;37.460;2023-02-04T05:08:09;99189.56;;;0.45;79.41
44027;BME280;29696;55.698;37.460;2023-02-04T05:10:39;99193.00;;;0.45;79.61
44027;BME280;29696;55.698;37.460;2023-02-04T05:13:06;99183.59;;;0.43;79.70
44027;BME280;29696;55.698;37.460;2023-02-04T05:15:32;99189.63;;;0.43;79.94
44027;BME280;29696;55.698;37.460;2023-02-04T05:17:59;99198.03;;;0.49;79.79
44027;BME280;29696;55.698;37.460;2023-02-04T05:20:25;99198.59;;;0.54;80.08
44027;BME280;29696;55.698;37.460;2023-02-04T05:22:52;99194.94;;;0.58;80.11
44027;BME280;29696;55.698;37.460;2023-02-04T05:25:18;99201.56;;;0.63;79.89
44027;BME280;29696;55.698;37.460;2023-02-04T05:27:45;99204.84;;;0.67;79.64
44027;BME280;29696;55.698;37.460;2023-02-04T05:30:12;99205.94;;;0.63;79.12
44027;BME280;29696;55.698;37.460;2023-02-04T05:32:39;99206.78;;;0.63;78.79
44027;BME280;29696;55.698;37.460;2023-02-04T05:35:05;99210.38;;;0.61;78.98
44027;BME280;29696;55.698;37.460;2023-02-04T05:37:32;99211.13;;;0.63;79.32
44027;BME280;29696;55.698;37.460;2023-02-04T05:39:58;99210.22;;;0.64;79.42
44027;BME280;29696;55.698;37.460;2023-02-04T05:42:24;99217.84;;;0.67;79.30
44027;BME280;29696;55.698;37.460;2023-02-04T05:45:13;99217.50;;;0.73;79.35
44027;BME280;29696;55.698;37.460;2023-02-04T05:58:42;99245.84;;;0.62;78.90
44027;BME280;29696;55.698;37.460;2023-02-04T06:01:11;99245.34;;;0.55;79.23
44027;BME280;29696;55.698;37.460;2023-02-04T06:03:37;99247.59;;;0.61;79.75
44027;BME280;29696;55.698;37.460;2023-02-04T06:06:04;99248.88;;;0.70;79.65
44027;BME280;29696;55.698;37.460;2023-02-04T06:08:30;99252.75;;;0.79;79.44
44027;BME280;29696;55.698;37.460;2023-02-04T06:10:56;99256.81;;;0.84;78.82
44027;BME280;29696;55.698;37.460;2023-02-04T06:13:23;99257.22;;;0.93;78.56
44027;BME280;29696;55.698;37.460;2023-02-04T06:15:49;99258.75;;;0.97;78.18
44027;BME280;29696;55.698;37.460;2023-02-04T06:18:16;99268.16;;;0.99;77.99
44027;BME280;29696;55.698;37.460;2023-02-04T06:20:42;99263.84;;;0.98;77.68
44027;BME280;29696;55.698;37.460;2023-02-04T06:23:08;99267.53;;;0.94;77.48
44027;BME280;29696;55.698;37.460;2023-02-04T06:25:35;99269.03;;;0.82;77.47
44027;BME280;29696;55.698;37.460;2023-02-04T06:28:01;99269.38;;;0.76;77.97
44027;BME280;29696;55.698;37.460;2023-02-04T06:30:28;99273.72;;;0.76;78.57
44027;BME280;29696;55.698;37.460;2023-02-04T06:32:54;99283.97;;;0.79;78.63
44027;BME280;29696;55.698;37.460;2023-02-04T06:35:20;99287.19;;;0.84;78.65
44027;BME280;29696;55.698;37.460;2023-02-04T06:37:46;99286.69;;;0.93;78.40
44027;BME280;29696;55.698;37.460;2023-02-04T06:40:13;99284.66;;;0.98;77.88
44027;BME280;29696;55.698;37.460;2023-02-04T06:42:40;99287.69;;;1.06;76.80
44027;BME280;29696;55.698;37.460;2023-02-04T06:45:06;99292.34;;;1.17;76.85
44027;BME280;29696;55.698;37.460;2023-02-04T06:47:33;99297.69;;;1.30;76.37
44027;BME280;29696;55.698;37.460;2023-02-04T06:49:59;99305.78;;;1.41;75.95
44027;BME280;29696;55.698;37.460;2023-02-04T06:52:26;99306.16;;;1.49;75.25
44027;BME280;29696;55.698;37.460;2023-02-04T06:54:52;99306.00;;;1.52;74.89
44027;BME280;29696;55.698;37.460;2023-02-04T06:57:18;99311.22;;;1.52;74.80
44027;BME280;29696;55.698;37.460;2023-02-04T06:59:45;99309.53;;;1.51;74.50
44027;BME280;29696;55.698;37.460;2023-02-04T07:02:12;99311.31;;;1.51;74.92
44027;BME280;29696;55.698;37.460;2023-02-04T07:04:38;99310.38;;;1.52;75.17
44027;BME280;29696;55.698;37.460;2023-02-04T07:07:05;99313.06;;;1.50;75.78
44027;BME280;29696;55.698;37.460;2023-02-04T07:09:31;99321.91;;;1.48;75.95
44027;BME280;29696;55.698;37.460;2023-02-04T07:11:58;99325.34;;;1.48;76.25
44027;BME280;29696;55.698;37.460;2023-02-04T07:14:24;99320.28;;;1.45;75.92
44027;BME280;29696;55.698;37.460;2023-02-04T07:16:50;99329.69;;;1.48;76.29
44027;BME280;29696;55.698;37.460;2023-02-04T07:19:17;99332.38;;;1.46;75.88
44027;BME280;29696;55.698;37.460;2023-02-04T07:21:43;99332.38;;;1.46;75.91
44027;BME280;29696;55.698;37.460;2023-02-04T07:24:09;99337.75;;;1.43;75.91
44027;BME280;29696;55.698;37.460;2023-02-04T07:26:36;99335.91;;;1.45;76.18
44027;BME280;29696;55.698;37.460;2023-02-04T07:29:02;99335.75;;;1.48;76.14
44027;BME280;29696;55.698;37.460;2023-02-04T07:31:28;99341.72;;;1.50;76.18
44027;BME280;29696;55.698;37.460;2023-02-04T07:33:55;99338.00;;;1.54;76.18
44027;BME280;29696;55.698;37.460;2023-02-04T07:36:21;99335.34;;;1.56;75.86
44027;BME280;29696;55.698;37.460;2023-02-04T07:38:47;99339.09;;;1.66;75.35
44027;BME280;29696;55.698;37.460;2023-02-04T07:41:14;99352.72;;;1.71;75.23
44027;BME280;29696;55.698;37.460;2023-02-04T07:43:40;99354.22;;;1.75;74.88
44027;BME280;29696;55.698;37.460;2023-02-04T07:46:06;99347.81;;;1.81;74.85
44027;BME280;29696;55.698;37.460;2023-02-04T07:48:32;99355.31;;;1.87;74.56
44027;BME280;29696;55.698;37.460;2023-02-04T07:50:59;99359.34;;;1.93;74.04
44027;BME280;29696;55.698;37.460;2023-02-04T07:53:25;99354.72;;;1.98;73.90
44027;BME280;29696;55.698;37.460;2023-02-04T07:55:51;99357.44;;;2.11;73.94
44027;BME280;29696;55.698;37.460;2023-02-04T07:58:17;99361.97;;;2.23;73.70
44027;BME280;29696;55.698;37.460;2023-02-04T08:00:44;99354.09;;;2.39;73.02
44027;BME280;29696;55.698;37.460;2023-02-04T08:03:10;99356.16;;;2.48;71.81
44027;BME280;29696;55.698;37.460;2023-02-04T08:05:36;99365.50;;;2.52;71.41
44027;BME280;29696;55.698;37.460;2023-02-04T08:08:03;99356.00;;;2.65;71.55
44027;BME280;29696;55.698;37.460;2023-02-04T08:10:29;99364.31;;;2.72;71.19
44027;BME280;29696;55.698;37.460;2023-02-04T08:12:55;99367.22;;;2.82;70.80
44027;BME280;29696;55.698;37.460;2023-02-04T08:15:22;99366.56;;;2.92;70.63
44027;BME280;29696;55.698;37.460;2023-02-04T08:17:48;99367.41;;;2.93;70.07
44027;BME280;29696;55.698;37.460;2023-02-04T08:20:14;99368.34;;;2.92;69.82
44027;BME280;29696;55.698;37.460;2023-02-04T08:22:43;99366.66;;;2.91;70.06
44027;BME280;29696;55.698;37.460;2023-02-04T08:25:10;99367.31;;;2.94;69.81
44027;BME280;29696;55.698;37.460;2023-02-04T08:27:38;99365.84;;;2.90;69.50
44027;BME280;29696;55.698;37.460;2023-02-04T08:30:05;99375.72;;;2.85;69.26
44027;BME280;29696;55.698;37.460;2023-02-04T08:32:31;99377.47;;;2.85;69.36
44027;BME280;29696;55.698;37.460;2023-02-04T08:34:58;99378.50;;;2.82;69.08
44027;BME280;29696;55.698;37.460;2023-02-04T08:37:24;99372.69;;;2.77;68.84
44027;BME280;29696;55.698;37.460;2023-02-04T08:39:53;99383.13;;;2.77;68.56
44027;BME280;29696;55.698;37.460;2023-02-04T08:42:20;99381.19;;;2.81;69.39
44027;BME280;29696;55.698;37.460;2023-02-04T08:44:47;99382.00;;;2.81;68.91
44027;BME280;29696;55.698;37.460;2023-02-04T08:47:13;99386.59;;;2.78;68.81
44027;BME280;29696;55.698;37.460;2023-02-04T08:49:39;99389.66;;;2.70;68.35
44027;BME280;29696;55.698;37.460;2023-02-04T08:52:06;99383.78;;;2.66;68.92
44027;BME280;29696;55.698;37.460;2023-02-04T08:54:33;99387.88;;;2.70;69.09
44027;BME280;29696;55.698;37.460;2023-02-04T08:57:00;99395.53;;;2.73;68.97
44027;BME280;29696;55.698;37.460;2023-02-04T08:59:27;99393.94;;;2.71;68.35
44027;BME280;29696;55.698;37.460;2023-02-04T09:01:53;99393.09;;;2.70;68.30
44027;BME280;29696;55.698;37.460;2023-02-04T09:04:21;99397.03;;;2.78;68.75
44027;BME280;29696;55.698;37.460;2023-02-04T09:06:48;99395.44;;;2.75;68.06
44027;BME280;29696;55.698;37.460;2023-02-04T09:09:14;99392.81;;;2.75;68.00
44027;BME280;29696;55.698;37.460;2023-02-04T09:11:41;99395.34;;;2.77;68.19
44027;BME280;29696;55.698;37.460;2023-02-04T09:14:08;99398.78;;;2.77;68.05
44027;BME280;29696;55.698;37.460;2023-02-04T09:16:34;99402.91;;;2.81;68.56
44027;BME280;29696;55.698;37.460;2023-02-04T09:19:01;99407.03;;;2.85;68.26
44027;BME280;29696;55.698;37.460;2023-02-04T09:21:29;99414.75;;;2.87;68.05
44027;BME280;29696;55.698;37.460;2023-02-04T09:23:56;99413.25;;;2.83;68.26
44027;BME280;29696;55.698;37.460;2023-02-04T09:26:23;99407.69;;;2.89;68.60
44027;BME280;29696;55.698;37.460;2023-02-04T09:28:49;99411.41;;;2.85;68.12
44027;BME280;29696;55.698;37.460;2023-02-04T09:31:15;99409.81;;;2.82;68.33
44027;BME280;29696;55.698;37.460;2023-02-04T09:33:42;99406.44;;;2.80;68.34
44027;BME280;29696;55.698;37.460;2023-02-04T09:36:08;99415.41;;;2.76;68.26
44027;BME280;29696;55.698;37.460;2023-02-04T09:38:35;99413.03;;;2.71;68.66
44027;BME280;29696;55.698;37.460;2023-02-04T09:41:06;99420.63;;;2.76;69.31
44027;BME280;29696;55.698;37.460;2023-02-04T09:43:35;99417.53;;;2.69;68.92
44027;BME280;29696;55.698;37.460;2023-02-04T09:46:03;99418.44;;;2.68;69.13
44027;BME280;29696;55.698;37.460;2023-02-04T09:48:30;99419.28;;;2.69;69.31
44027;BME280;29696;55.698;37.460;2023-02-04T09:51:04;99426.56;;;2.78;69.13
44027;BME280;29696;55.698;37.460;2023-02-04T09:53:31;99422.47;;;2.74;68.76
44027;BME280;29696;55.698;37.460;2023-02-04T09:55:59;99416.03;;;2.80;68.77
44027;BME280;29696;55.698;37.460;2023-02-04T09:58:29;99429.69;;;2.99;68.44
44027;BME280;29696;55.698;37.460;2023-02-04T10:01:08;99426.63;;;3.21;68.14
44027;BME280;29696;55.698;37.460;2023-02-04T10:03:36;99425.25;;;3.30;67.51
44027;BME280;29696;55.698;37.460;2023-02-04T10:06:17;99425.59;;;3.52;67.47
44027;BME280;29696;55.698;37.460;2023-02-04T10:08:45;99433.53;;;3.65;66.01
44027;BME280;29696;55.698;37.460;2023-02-04T10:11:12;99435.47;;;3.61;65.04
44027;BME280;29696;55.698;37.460;2023-02-04T10:13:47;99435.97;;;3.68;65.44
44027;BME280;29696;55.698;37.460;2023-02-04T10:16:18;99441.94;;;3.41;65.20
44027;BME280;29696;55.698;37.460;2023-02-04T10:18:45;99443.06;;;3.23;65.53
44027;BME280;29696;55.698;37.460;2023-02-04T10:21:21;99437.72;;;3.25;66.16
44027;BME280;29696;55.698;37.460;2023-02-04T10:23:50;99446.09;;;3.01;66.06
44027;BME280;29696;55.698;37.460;2023-02-04T10:26:20;99448.66;;;2.87;67.00
44027;BME280;29696;55.698;37.460;2023-02-04T10:28:46;99447.19;;;2.83;67.34
44027;BME280;29696;55.698;37.460;2023-02-04T10:31:30;99445.69;;;2.93;68.02
44027;BME280;29696;55.698;37.460;2023-02-04T10:37:18;99455.78;;;2.85;68.50
44027;BME280;29696;55.698;37.460;2023-02-04T10:39:45;99462.25;;;2.78;68.60
44027;BME280;29696;55.698;37.460;2023-02-04T10:42:37;99461.88;;;3.00;69.22
44027;BME280;29696;55.698;37.460;2023-02-04T10:45:24;99464.06;;;2.91;68.34
44027;BME280;29696;55.698;37.460;2023-02-04T10:47:52;99471.81;;;2.63;68.03
44027;BME280;29696;55.698;37.460;2023-02-04T10:50:24;99466.38;;;2.51;68.75
44027;BME280;29696;55.698;37.460;2023-02-04T10:52:53;99469.16;;;2.33;69.02
44027;BME280;29696;55.698;37.460;2023-02-04T10:55:40;99483.84;;;2.19;69.40
44027;BME280;29696;55.698;37.460;2023-02-04T10:58:10;99474.09;;;2.07;69.84
44027;BME280;29696;55.698;37.460;2023-02-04T11:00:37;99478.03;;;1.98;70.68
44027;BME280;29696;55.698;37.460;2023-02-04T11:03:13;99483.06;;;2.01;71.16
44027;BME280;29696;55.698;37.460;2023-02-04T11:05:41;99474.16;;;1.90;71.16
44027;BME280;29696;55.698;37.460;2023-02-04T11:08:29;99489.56;;;2.10;71.95
44027;BME280;29696;55.698;37.460;2023-02-04T11:10:59;99489.28;;;1.99;71.29
44027;BME280;29696;55.698;37.460;2023-02-04T11:13:39;99490.72;;;2.04;71.89
44027;BME280;29696;55.698;37.460;2023-02-04T11:16:26;99487.84;;;2.09;72.03
44027;BME280;29696;55.698;37.460;2023-02-04T11:18:58;99487.19;;;1.90;72.07
44027;BME280;29696;55.698;37.460;2023-02-04T11:24:23;99498.88;;;1.82;72.70
44027;BME280;29696;55.698;37.460;2023-02-04T11:26:51;99503.31;;;1.80;73.13
44027;BME280;29696;55.698;37.460;2023-02-04T11:32:35;99497.59;;;1.90;73.75
44027;BME280;29696;55.698;37.460;2023-02-04T11:35:20;99499.13;;;1.94;73.76
44027;BME280;29696;55.698;37.460;2023-02-04T11:37:47;99498.00;;;1.82;73.25
44027;BME280;29696;55.698;37.460;2023-02-04T11:40:30;99506.94;;;1.94;73.53
44027;BME280;29696;55.698;37.460;2023-02-04T11:43:10;99505.25;;;1.93;73.54
44027;BME280;29696;55.698;37.460;2023-02-04T11:45:39;99505.50;;;1.88;73.31
44027;BME280;29696;55.698;37.460;2023-02-04T11:48:14;99499.63;;;2.00;73.19
44027;BME280;29696;55.698;37.460;2023-02-04T11:50:41;99511.91;;;1.98;72.39
44027;BME280;29696;55.698;37.460;2023-02-04T11:53:09;99511.75;;;2.01;71.73
44027;BME280;29696;55.698;37.460;2023-02-04T11:55:43;99518.41;;;2.07;70.48
44027;BME280;29696;55.698;37.460;2023-02-04T11:58:14;99521.84;;;2.08;70.58
44027;BME280;29696;55.698;37.460;2023-02-04T12:00:41;99521.34;;;2.01;68.03
44027;BME280;29696;55.698;37.460;2023-02-04T12:06:20;99529.38;;;2.12;67.20
44027;BME280;29696;55.698;37.460;2023-02-04T12:08:46;99534.19;;;2.04;66.80
44027;BME280;29696;55.698;37.460;2023-02-04T12:11:27;99538.06;;;2.13;66.91
44027;BME280;29696;55.698;37.460;2023-02-04T12:14:06;99538.16;;;2.11;67.06
44027;BME280;29696;55.698;37.460;2023-02-04T12:19:32;99540.78;;;1.78;67.25
44027;BME280;29696;55.698;37.460;2023-02-04T12:21:58;99541.34;;;1.67;67.86
44027;BME280;29696;55.698;37.460;2023-02-04T12:24:25;99550.47;;;1.58;67.74
44027;BME280;29696;55.698;37.460;2023-02-04T12:26:51;99549.94;;;1.52;68.29
44027;BME280;29696;55.698;37.460;2023-02-04T12:29:17;99550.94;;;1.49;68.62
44027;BME280;29696;55.698;37.460;2023-02-04T12:31:43;99556.41;;;1.45;68.65
44027;BME280;29696;55.698;37.460;2023-02-04T12:34:10;99566.97;;;1.42;68.78
44027;BME280;29696;55.698;37.460;2023-02-04T12:36:36;99559.47;;;1.35;69.30
44027;BME280;29696;55.698;37.460;2023-02-04T12:39:02;99566.00;;;1.27;69.44
44027;BME280;29696;55.698;37.460;2023-02-04T12:41:29;99571.66;;;1.18;69.99
44027;BME280;29696;55.698;37.460;2023-02-04T12:43:55;99575.47;;;1.10;70.22
44027;BME280;29696;55.698;37.460;2023-02-04T12:46:21;99580.13;;;1.04;69.84
44027;BME280;29696;55.698;37.460;2023-02-04T12:48:48;99579.38;;;1.02;70.02
44027;BME280;29696;55.698;37.460;2023-02-04T12:51:14;99575.22;;;0.98;70.34
44027;BME280;29696;55.698;37.460;2023-02-04T12:53:40;99592.81;;;0.93;70.51
44027;BME280;29696;55.698;37.460;2023-02-04T12:56:07;99585.41;;;0.85;70.85
44027;BME280;29696;55.698;37.460;2023-02-04T12:58:33;99595.03;;;0.83;71.13
44027;BME280;29696;55.698;37.460;2023-02-04T13:00:59;99593.25;;;0.83;71.71
44027;BME280;29696;55.698;37.460;2023-02-04T13:03:26;99598.47;;;0.83;71.92
44027;BME280;29696;55.698;37.460;2023-02-04T13:05:53;99602.78;;;0.84;72.38
44027;BME280;29696;55.698;37.460;2023-02-04T13:08:19;99603.53;;;0.86;72.92
44027;BME280;29696;55.698;37.460;2023-02-04T13:10:45;99603.38;;;0.89;73.21
44027;BME280;29696;55.698;37.460;2023-02-04T13:13:17;99607.59;;;0.92;73.48
44027;BME280;29696;55.698;37.460;2023-02-04T13:15:44;99623.28;;;0.90;73.97
44027;BME280;29696;55.698;37.460;2023-02-04T13:18:11;99625.94;;;0.89;74.58
44027;BME280;29696;55.698;37.460;2023-02-04T13:20:37;99618.16;;;0.89;74.84
44027;BME280;29696;55.698;37.460;2023-02-04T13:23:03;99610.44;;;0.87;74.99
44027;BME280;29696;55.698;37.460;2023-02-04T13:25:30;99615.50;;;0.90;75.23
44027;BME280;29696;55.698;37.460;2023-02-04T13:27:56;99610.28;;;0.90;76.02
44027;BME280;29696;55.698;37.460;2023-02-04T13:30:22;99615.03;;;1.00;76.16
44027;BME280;29696;55.698;37.460;2023-02-04T13:32:49;99621.09;;;1.00;75.61
44027;BME280;29696;55.698;37.460;2023-02-04T13:35:15;99623.75;;;0.99;74.89
44027;BME280;29696;55.698;37.460;2023-02-04T13:37:42;99627.38;;;0.96;75.12